createdAt,value
2023-10-04T00:02:14.948Z,25.27
2023-10-04T00:04:45.468Z,24.98
2023-10-04T00:07:13.147Z,24.52
2023-10-04T00:09:40.418Z,29.52
2023-10-04T00:12:09.758Z,24.73
2023-10-04T00:17:04.300Z,24.63
2023-10-04T00:19:33.695Z,22.75
2023-10-04T00:22:03.156Z,22.73
2023-10-04T00:24:30.275Z,29.00
2023-10-04T00:26:58.741Z,23.73
2023-10-04T00:29:27.148Z,28.52
2023-10-04T00:31:54.416Z,27.50
2023-10-04T00:34:21.497Z,21.45
2023-10-04T00:36:49.579Z,24.67
2023-10-04T00:39:16.960Z,24.98
2023-10-04T00:41:44.519Z,26.38
2023-10-04T00:44:12.192Z,28.00
2023-10-04T00:46:43.173Z,28.58
2023-10-04T00:49:10.514Z,25.05
2023-10-04T00:51:38.484Z,24.95
2023-10-04T00:54:09.534Z,25.13
2023-10-04T00:56:40.135Z,28.63
2023-10-04T00:59:08.782Z,22.27
2023-10-04T01:01:42.027Z,22.92
2023-10-04T01:04:10.481Z,24.75
2023-10-04T01:06:38.920Z,26.63
2023-10-04T01:09:07.713Z,23.90
2023-10-04T01:11:36.930Z,27.02
2023-10-04T01:14:19.832Z,25.17
2023-10-04T01:16:46.816Z,25.77
2023-10-04T01:19:17.362Z,23.75
2023-10-04T01:21:44.943Z,30.38
2023-10-04T01:24:12.481Z,27.30
2023-10-04T01:26:40.390Z,26.35
2023-10-04T01:29:13.150Z,26.98
2023-10-04T01:31:40.642Z,28.27
2023-10-04T01:34:07.807Z,28.80
2023-10-04T01:36:37.989Z,24.23
2023-10-04T01:39:08.863Z,25.58
2023-10-04T01:41:40.353Z,27.27
2023-10-04T01:44:11.141Z,28.92
2023-10-04T01:46:39.714Z,26.25
2023-10-04T01:49:10.622Z,25.10
2023-10-04T01:51:37.967Z,25.80
2023-10-04T01:54:06.282Z,28.38
2023-10-04T01:56:33.800Z,24.85
2023-10-04T01:59:01.575Z,28.55
2023-10-04T02:01:28.866Z,27.05
2023-10-04T02:03:56.896Z,24.73
2023-10-04T02:06:24.607Z,27.27
2023-10-04T02:08:51.769Z,28.20
2023-10-04T02:11:22.916Z,25.63
2023-10-04T02:13:52.175Z,27.73
2023-10-04T02:16:24.278Z,29.25
2023-10-04T02:18:53.491Z,29.65
2023-10-04T02:21:22.433Z,26.48
2023-10-04T02:23:50.492Z,28.65
2023-10-04T02:26:17.538Z,26.40
2023-10-04T02:28:46.538Z,27.65
2023-10-04T02:31:13.832Z,27.63
2023-10-04T02:33:41.077Z,26.58
2023-10-04T02:36:08.941Z,23.33
2023-10-04T02:38:37.945Z,26.42
2023-10-04T02:41:07.440Z,27.52
2023-10-04T02:43:34.889Z,27.60
2023-10-04T02:46:02.275Z,28.88
2023-10-04T02:48:31.959Z,26.88
2023-10-04T02:51:00.192Z,26.08
2023-10-04T02:53:28.517Z,29.65
2023-10-04T02:55:58.556Z,26.25
2023-10-04T02:58:36.168Z,24.00
2023-10-04T03:01:04.962Z,27.63
2023-10-04T03:03:33.257Z,28.60
2023-10-04T03:06:05.921Z,22.58
2023-10-04T03:08:34.135Z,25.25
2023-10-04T03:13:35.820Z,21.98
2023-10-04T03:16:05.354Z,28.98
2023-10-04T03:18:35.235Z,26.08
2023-10-04T03:21:03.582Z,27.58
2023-10-04T03:23:43.406Z,31.08
2023-10-04T03:26:30.442Z,26.83
2023-10-04T03:28:58.780Z,26.38
2023-10-04T03:31:30.335Z,29.67
2023-10-04T03:34:00.556Z,28.98
2023-10-04T03:36:30.717Z,26.45
2023-10-04T03:39:05.171Z,27.55
2023-10-04T03:41:33.962Z,26.35
2023-10-04T03:44:06.932Z,23.73
2023-10-04T03:46:35.454Z,27.25
2023-10-04T03:49:05.593Z,28.38
2023-10-04T03:51:32.924Z,31.67
2023-10-04T03:54:08.364Z,28.95
2023-10-04T03:56:37.490Z,28.35
2023-10-04T03:59:05.114Z,27.27
2023-10-04T04:01:33.447Z,27.08
2023-10-04T04:04:05.148Z,29.53
2023-10-04T04:06:32.547Z,29.50
2023-10-04T04:09:04.622Z,30.30
2023-10-04T04:11:33.021Z,31.17
2023-10-04T04:14:00.134Z,29.17
2023-10-04T04:16:27.350Z,28.20
2023-10-04T04:18:56.463Z,32.38
2023-10-04T04:21:29.945Z,33.20
2023-10-04T04:23:57.401Z,31.65
2023-10-04T04:26:28.756Z,30.80
2023-10-04T04:28:56.409Z,30.40
2023-10-04T04:31:24.343Z,32.25
2023-10-04T04:33:52.218Z,33.50
2023-10-04T04:36:29.156Z,33.55
2023-10-04T04:39:07.519Z,32.30
2023-10-04T04:41:37.016Z,28.00
2023-10-04T04:44:11.332Z,39.10
2023-10-04T04:46:44.650Z,31.70
2023-10-04T04:49:13.315Z,32.47
2023-10-04T04:51:40.699Z,29.10
2023-10-04T04:54:08.102Z,38.83
2023-10-04T04:56:36.826Z,34.38
2023-10-04T04:59:11.662Z,35.75
2023-10-04T05:01:41.633Z,36.13
2023-10-04T05:04:10.153Z,32.53
2023-10-04T05:06:39.585Z,30.65
2023-10-04T05:09:07.775Z,28.23
2023-10-04T05:11:37.818Z,30.42
2023-10-04T05:14:07.960Z,30.60
2023-10-04T05:16:36.033Z,33.22
2023-10-04T05:19:05.816Z,38.45
2023-10-04T05:21:35.713Z,31.08
2023-10-04T05:24:04.337Z,32.20
2023-10-04T05:26:33.269Z,34.65
2023-10-04T05:29:02.375Z,30.48
2023-10-04T05:31:29.756Z,31.80
2023-10-04T05:33:56.855Z,32.50
2023-10-04T05:36:25.470Z,37.65
2023-10-04T05:38:52.623Z,33.55
2023-10-04T05:41:20.718Z,33.17
2023-10-04T05:43:47.779Z,37.58
2023-10-04T05:46:15.493Z,35.97
2023-10-04T05:48:42.708Z,32.47
2023-10-04T05:51:10.137Z,28.65
2023-10-04T05:53:39.114Z,32.28
2023-10-04T05:56:06.672Z,33.38
2023-10-04T05:58:36.077Z,35.80
2023-10-04T06:01:03.680Z,33.28
2023-10-04T06:03:34.306Z,34.70
2023-10-04T06:06:01.770Z,34.85
2023-10-04T06:08:28.961Z,59.45
2023-10-04T06:10:56.472Z,35.25
2023-10-04T06:13:24.322Z,37.70
2023-10-04T06:15:55.974Z,35.10
2023-10-04T06:18:29.918Z,34.67
2023-10-04T06:20:58.121Z,34.53
2023-10-04T06:23:26.090Z,37.33
2023-10-04T06:25:53.328Z,30.63
2023-10-04T06:28:21.411Z,32.42
2023-10-04T06:30:53.863Z,33.80
2023-10-04T06:33:21.487Z,30.80
2023-10-04T06:35:48.961Z,28.02
2023-10-04T06:38:16.612Z,33.65
2023-10-04T06:40:44.862Z,33.28
2023-10-04T06:43:16.158Z,36.88
2023-10-04T06:45:44.184Z,31.33
2023-10-04T06:48:12.020Z,31.40
2023-10-04T06:50:43.248Z,32.70
2023-10-04T06:53:11.047Z,35.97
2023-10-04T06:55:39.288Z,34.90
2023-10-04T06:58:10.285Z,33.00
2023-10-04T07:00:39.264Z,35.90
2023-10-04T07:03:06.945Z,33.38
2023-10-04T07:05:36.387Z,30.23
2023-10-04T07:08:05.691Z,33.50
2023-10-04T07:10:33.557Z,37.80
2023-10-04T07:13:02.995Z,34.72
2023-10-04T07:15:38.033Z,34.63
2023-10-04T07:18:11.083Z,32.58
2023-10-04T07:20:39.676Z,44.88
2023-10-04T07:23:10.137Z,36.70
2023-10-04T07:25:39.227Z,33.83
2023-10-04T07:28:10.437Z,34.25
2023-10-04T07:30:39.186Z,31.45
2023-10-04T07:33:06.675Z,36.50
2023-10-04T07:35:34.978Z,33.83
2023-10-04T07:38:02.806Z,39.55
2023-10-04T07:40:32.306Z,36.57
2023-10-04T07:43:02.425Z,36.92
2023-10-04T07:45:31.323Z,37.63
2023-10-04T07:47:59.295Z,33.72
2023-10-04T07:50:27.827Z,31.30
2023-10-04T07:53:00.252Z,33.08
2023-10-04T07:55:28.140Z,35.70
2023-10-04T07:58:04.392Z,32.13
2023-10-04T08:00:33.325Z,30.95
2023-10-04T08:03:00.666Z,34.70
2023-10-04T08:05:32.656Z,37.65
2023-10-04T08:08:05.070Z,32.22
2023-10-04T08:10:35.083Z,32.38
2023-10-04T08:13:05.259Z,29.73
2023-10-04T08:15:34.489Z,35.25
2023-10-04T08:18:02.990Z,29.13
2023-10-04T08:20:31.633Z,34.65
2023-10-04T08:22:59.312Z,34.73
2023-10-04T08:25:30.070Z,30.98
2023-10-04T08:27:58.691Z,32.28
2023-10-04T08:30:27.117Z,30.33
2023-10-04T08:32:55.187Z,25.55
2023-10-04T08:35:26.233Z,30.00
2023-10-04T08:37:57.686Z,29.65
2023-10-04T08:40:28.755Z,29.70
2023-10-04T08:42:57.369Z,30.38
2023-10-04T08:45:26.511Z,27.60
2023-10-04T08:50:35.905Z,28.42
2023-10-04T08:53:19.852Z,25.58
2023-10-04T08:55:53.068Z,32.05
2023-10-04T08:58:21.220Z,28.23
2023-10-04T09:00:52.391Z,33.63
2023-10-04T09:03:24.238Z,27.05
2023-10-04T09:05:55.517Z,28.73
2023-10-04T09:08:25.852Z,27.58
2023-10-04T09:10:56.549Z,30.35
2023-10-04T09:13:25.011Z,29.58
2023-10-04T09:15:52.746Z,26.02
2023-10-04T09:18:28.015Z,25.88
2023-10-04T09:20:55.575Z,26.83
2023-10-04T09:23:25.852Z,27.08
2023-10-04T09:25:57.077Z,25.98
2023-10-04T09:28:42.287Z,31.35
2023-10-04T09:31:16.601Z,30.42
2023-10-04T09:33:45.483Z,28.85
2023-10-04T09:36:12.939Z,31.25
2023-10-04T09:38:41.085Z,26.55
2023-10-04T09:41:11.842Z,24.30
2023-10-04T09:43:41.676Z,28.33
2023-10-04T09:46:14.152Z,23.00
2023-10-04T09:48:47.835Z,26.88
2023-10-04T09:51:16.057Z,23.40
2023-10-04T09:53:43.824Z,22.05
2023-10-04T09:56:14.752Z,26.45
2023-10-04T09:58:50.932Z,28.65
2023-10-04T10:01:22.192Z,28.85
2023-10-04T10:04:09.381Z,25.45
2023-10-04T10:06:53.093Z,24.73
2023-10-04T10:09:24.363Z,24.13
2023-10-04T10:11:53.903Z,28.30
2023-10-04T10:16:55.912Z,25.02
2023-10-04T10:19:28.413Z,23.77
2023-10-04T10:22:20.416Z,23.25
2023-10-04T10:24:57.861Z,21.63
2023-10-04T10:27:29.973Z,24.95
2023-10-04T10:30:01.032Z,29.85
2023-10-04T10:32:28.251Z,25.05
2023-10-04T10:35:14.203Z,22.02
2023-10-04T10:37:41.669Z,20.85
2023-10-04T10:40:36.341Z,22.67
2023-10-04T10:43:10.897Z,18.95
2023-10-04T10:45:38.882Z,19.83
2023-10-04T10:48:11.499Z,24.08
2023-10-04T10:50:41.324Z,23.30
2023-10-04T10:53:12.312Z,24.33
2023-10-04T10:55:42.913Z,17.88
2023-10-04T10:58:10.164Z,21.10
2023-10-04T11:00:37.502Z,37.25
2023-10-04T11:03:12.565Z,17.77
2023-10-04T11:05:39.983Z,18.35
2023-10-04T11:08:13.629Z,17.67
2023-10-04T11:10:41.929Z,18.33
2023-10-04T11:13:10.221Z,19.30
2023-10-04T11:15:38.105Z,21.83
2023-10-04T11:18:08.100Z,22.27
2023-10-04T11:20:38.577Z,18.25
2023-10-04T11:23:07.381Z,17.77
2023-10-04T11:25:34.561Z,17.95
2023-10-04T11:28:02.078Z,17.73
2023-10-04T11:30:34.659Z,18.83
2023-10-04T11:33:02.328Z,18.05
2023-10-04T11:35:39.721Z,16.83
2023-10-04T11:38:16.722Z,17.60
2023-10-04T11:40:51.306Z,13.65
2023-10-04T11:43:19.270Z,19.88
2023-10-04T11:45:46.620Z,16.75
2023-10-04T11:48:14.553Z,19.02
2023-10-04T11:50:50.222Z,15.27
2023-10-04T11:53:30.589Z,16.55
2023-10-04T11:56:02.761Z,17.38
2023-10-04T11:58:32.248Z,11.10
2023-10-04T12:01:07.188Z,14.48
2023-10-04T12:03:37.486Z,15.95
2023-10-04T12:06:06.523Z,18.50
2023-10-04T12:08:36.460Z,12.80
2023-10-04T12:11:14.695Z,12.65
2023-10-04T12:13:42.087Z,14.10
2023-10-04T12:16:10.103Z,14.27
2023-10-04T12:18:38.634Z,16.92
2023-10-04T12:21:05.744Z,13.48
2023-10-04T12:23:35.588Z,13.68
2023-10-04T12:26:04.672Z,18.73
2023-10-04T12:28:33.627Z,16.05
2023-10-04T12:31:03.369Z,14.80
2023-10-04T12:33:36.340Z,18.25
2023-10-04T12:36:06.437Z,13.38
2023-10-04T12:38:37.988Z,17.05
2023-10-04T12:41:06.563Z,17.83
2023-10-04T12:43:33.673Z,20.05
2023-10-04T12:46:02.426Z,14.20
2023-10-04T12:48:29.924Z,17.73
2023-10-04T12:50:57.130Z,14.90
2023-10-04T12:53:24.926Z,18.20
2023-10-04T12:55:52.083Z,15.85
2023-10-04T12:58:21.635Z,14.75
2023-10-04T13:00:52.829Z,15.75
2023-10-04T13:03:20.487Z,16.98
2023-10-04T13:05:48.180Z,17.77
2023-10-04T13:08:22.559Z,17.02
2023-10-04T13:10:50.331Z,21.55
2023-10-04T13:13:17.663Z,16.80
2023-10-04T13:15:46.242Z,16.55
2023-10-04T13:18:13.401Z,14.52
2023-10-04T13:20:45.797Z,19.42
2023-10-04T13:23:13.493Z,18.42
2023-10-04T13:25:40.736Z,17.52
2023-10-04T13:28:11.665Z,16.33
2023-10-04T13:30:38.849Z,15.70
2023-10-04T13:33:06.311Z,14.38
2023-10-04T13:35:36.196Z,14.52
2023-10-04T13:38:05.340Z,14.60
2023-10-04T13:40:34.905Z,19.45
2023-10-04T13:43:06.544Z,13.75
2023-10-04T13:45:35.562Z,16.10
2023-10-04T13:50:43.538Z,16.27
2023-10-04T13:53:17.480Z,19.45
2023-10-04T13:55:45.790Z,18.73
2023-10-04T13:58:19.790Z,12.00
2023-10-04T14:00:48.059Z,13.30
2023-10-04T14:03:15.415Z,14.48
2023-10-04T14:05:43.328Z,17.95
2023-10-04T14:08:10.872Z,16.45
2023-10-04T14:10:39.082Z,14.05
2023-10-04T14:13:07.891Z,18.95
2023-10-04T14:15:35.233Z,13.38
2023-10-04T14:18:05.993Z,15.70
2023-10-04T14:20:33.237Z,14.52
2023-10-04T14:23:00.469Z,18.05
2023-10-04T14:25:29.656Z,21.05
2023-10-04T14:30:26.683Z,18.35
2023-10-04T14:32:54.677Z,14.30
2023-10-04T14:35:22.696Z,14.45
2023-10-04T14:37:50.353Z,15.20
2023-10-04T14:40:23.809Z,17.45
2023-10-04T14:42:53.625Z,16.00
2023-10-04T14:45:21.255Z,17.25
2023-10-04T14:47:48.581Z,17.48
2023-10-04T14:50:16.089Z,19.38
2023-10-04T14:52:44.174Z,14.65
2023-10-04T14:55:12.337Z,17.60
2023-10-04T14:57:40.576Z,17.77
2023-10-04T15:00:12.294Z,15.50
2023-10-04T15:02:40.105Z,14.55
2023-10-04T15:05:08.231Z,22.38
2023-10-04T15:07:35.852Z,21.27
2023-10-04T15:10:04.192Z,16.30
2023-10-04T15:12:33.412Z,15.98
2023-10-04T15:15:02.009Z,15.13
2023-10-04T15:17:32.030Z,17.95
2023-10-04T15:19:59.169Z,19.05
2023-10-04T15:22:31.675Z,17.35
2023-10-04T15:25:05.112Z,15.07
2023-10-04T15:27:32.600Z,17.33
2023-10-04T15:29:59.827Z,18.38
2023-10-04T15:32:26.950Z,23.88
2023-10-04T15:34:53.904Z,90.70
2023-10-04T15:37:21.201Z,138.50
2023-10-04T15:39:48.246Z,78.10
2023-10-04T15:42:17.020Z,27.05
2023-10-04T15:44:44.048Z,20.65
2023-10-04T15:47:11.032Z,19.40
2023-10-04T15:49:38.591Z,25.95
2023-10-04T15:52:05.872Z,21.55
2023-10-04T15:54:33.820Z,18.00
2023-10-04T15:57:00.869Z,20.40
2023-10-04T15:59:28.544Z,20.80
2023-10-04T16:01:58.374Z,15.15
2023-10-04T16:04:25.722Z,17.73
2023-10-04T16:06:53.067Z,14.82
2023-10-04T16:09:20.335Z,17.85
2023-10-04T16:11:47.416Z,16.48
2023-10-04T16:14:16.088Z,20.70
2023-10-04T16:16:43.259Z,17.42
2023-10-04T16:19:10.462Z,19.48
2023-10-04T16:21:37.690Z,17.35
2023-10-04T16:24:05.209Z,19.58
2023-10-04T16:26:32.633Z,17.13
2023-10-04T16:29:01.439Z,21.63
2023-10-04T16:31:28.868Z,18.38
2023-10-04T16:33:55.864Z,19.38
2023-10-04T16:36:22.889Z,16.05
2023-10-04T16:38:49.998Z,16.40
2023-10-04T16:41:17.014Z,17.83
2023-10-04T16:43:44.202Z,18.55
2023-10-04T16:46:11.263Z,25.65
2023-10-04T16:48:38.621Z,23.70
2023-10-04T16:51:05.944Z,27.35
2023-10-04T16:53:33.093Z,29.77
2023-10-04T16:56:00.247Z,30.73
2023-10-04T16:58:27.273Z,37.45
2023-10-04T17:00:55.151Z,25.17
2023-10-04T17:03:22.436Z,24.58
2023-10-04T17:05:49.602Z,22.02
2023-10-04T17:08:16.630Z,26.45
2023-10-04T17:10:43.750Z,38.88
2023-10-04T17:13:11.875Z,29.02
2023-10-04T17:15:39.262Z,28.10
2023-10-04T17:18:06.839Z,25.25
2023-10-04T17:20:33.872Z,25.98
2023-10-04T17:23:00.877Z,21.60
2023-10-04T17:25:27.967Z,23.08
2023-10-04T17:27:55.289Z,19.60
2023-10-04T17:30:25.201Z,19.88
2023-10-04T17:32:52.324Z,17.15
2023-10-04T17:35:19.582Z,19.50
2023-10-04T17:37:46.921Z,17.85
2023-10-04T17:40:17.171Z,16.60
2023-10-04T17:42:45.929Z,20.25
2023-10-04T17:45:13.419Z,15.98
2023-10-04T17:47:40.733Z,22.23
2023-10-04T17:50:08.843Z,23.00
2023-10-04T17:52:36.034Z,21.67
2023-10-04T17:55:05.402Z,20.08
2023-10-04T17:57:32.914Z,19.02
2023-10-04T18:00:02.632Z,22.35
2023-10-04T18:02:34.822Z,18.38
2023-10-04T18:05:01.957Z,23.95
2023-10-04T18:07:31.046Z,20.33
2023-10-04T18:09:58.978Z,21.10
2023-10-04T18:12:26.775Z,21.38
2023-10-04T18:14:53.918Z,23.88
2023-10-04T18:17:21.082Z,20.10
2023-10-04T18:19:48.284Z,19.17
2023-10-04T18:22:15.454Z,20.02
2023-10-04T18:24:42.923Z,20.08
2023-10-04T18:27:11.291Z,20.88
2023-10-04T18:29:38.815Z,19.25
2023-10-04T18:32:06.007Z,17.25
2023-10-04T18:34:33.648Z,19.13
2023-10-04T18:37:04.231Z,19.15
2023-10-04T18:39:32.386Z,19.30
2023-10-04T18:41:59.618Z,22.15
2023-10-04T18:44:26.608Z,16.65
2023-10-04T18:46:54.025Z,18.17
2023-10-04T18:49:22.761Z,18.88
2023-10-04T18:51:50.258Z,19.37
2023-10-04T18:54:17.652Z,20.58
2023-10-04T18:56:44.800Z,18.88
2023-10-04T18:59:11.868Z,19.20
2023-10-04T19:01:40.647Z,23.08
2023-10-04T19:04:08.772Z,16.90
2023-10-04T19:06:36.837Z,16.27
2023-10-04T19:09:10.545Z,19.50
2023-10-04T19:11:37.895Z,16.17
2023-10-04T19:14:09.073Z,14.85
2023-10-04T19:16:36.295Z,18.35
2023-10-04T19:19:05.145Z,17.25
2023-10-04T19:21:32.359Z,16.70
2023-10-04T19:24:01.128Z,16.15
2023-10-04T19:26:28.421Z,15.38
2023-10-04T19:28:55.977Z,16.88
2023-10-04T19:31:23.201Z,18.92
2023-10-04T19:33:50.487Z,20.30
2023-10-04T19:36:17.853Z,21.17
2023-10-04T19:38:44.836Z,17.77
2023-10-04T19:41:15.059Z,17.75
2023-10-04T19:43:42.105Z,21.23
2023-10-04T19:46:09.737Z,17.90
2023-10-04T19:48:38.792Z,18.17
2023-10-04T19:51:10.876Z,24.48
2023-10-04T19:53:38.137Z,17.90
2023-10-04T19:56:06.908Z,20.30
2023-10-04T19:58:34.065Z,21.45
2023-10-04T20:01:02.661Z,15.43
2023-10-04T20:03:33.285Z,15.95
2023-10-04T20:06:01.777Z,16.67
2023-10-04T20:08:29.719Z,18.60
2023-10-04T20:10:57.738Z,17.38
2023-10-04T20:13:25.574Z,19.83
2023-10-04T20:15:52.821Z,18.73
2023-10-04T20:18:20.061Z,22.45
2023-10-04T20:20:47.225Z,16.80
2023-10-04T20:23:14.603Z,18.50
2023-10-04T20:25:43.014Z,18.45
2023-10-04T20:28:10.429Z,22.80
2023-10-04T20:30:37.601Z,19.38
2023-10-04T20:33:05.188Z,16.05
2023-10-04T20:35:33.410Z,25.02
2023-10-04T20:38:00.476Z,21.02
2023-10-04T20:40:27.494Z,21.75
2023-10-04T20:42:54.917Z,20.60
2023-10-04T20:45:22.024Z,31.45
2023-10-04T20:47:50.632Z,19.17
2023-10-04T20:50:18.507Z,22.20
2023-10-04T20:52:48.707Z,24.27
2023-10-04T20:55:18.915Z,19.48
2023-10-04T20:57:46.801Z,20.00
2023-10-04T21:00:15.755Z,25.13
2023-10-04T21:02:43.728Z,21.08
2023-10-04T21:05:13.821Z,21.05
2023-10-04T21:07:43.442Z,17.90
2023-10-04T21:10:12.858Z,21.73
2023-10-04T21:12:40.912Z,23.23
2023-10-04T21:15:12.905Z,22.85
2023-10-04T21:17:40.911Z,22.45
2023-10-04T21:20:09.662Z,26.05
2023-10-04T21:22:37.160Z,21.27
2023-10-04T21:25:05.851Z,21.50
2023-10-04T21:27:33.427Z,19.83
2023-10-04T21:30:03.199Z,25.30
2023-10-04T21:32:40.593Z,21.42
2023-10-04T21:35:29.389Z,24.42
2023-10-04T21:37:58.403Z,23.38
2023-10-04T21:40:29.376Z,20.48
2023-10-04T21:43:00.727Z,20.40
2023-10-04T21:45:31.604Z,24.38
2023-10-04T21:48:03.794Z,19.17
2023-10-04T21:50:33.824Z,18.58
2023-10-04T21:53:02.232Z,19.33
2023-10-04T21:55:31.221Z,25.30
2023-10-04T21:57:59.950Z,21.58
2023-10-04T22:00:30.249Z,23.45
2023-10-04T22:02:58.675Z,20.25
2023-10-04T22:05:27.067Z,22.63
2023-10-04T22:07:59.945Z,21.92
2023-10-04T22:10:27.211Z,26.63
2023-10-04T22:12:54.529Z,20.80
2023-10-04T22:15:24.898Z,20.95
2023-10-04T22:17:52.476Z,20.33
2023-10-04T22:20:20.943Z,23.08
2023-10-04T22:22:49.580Z,21.73
2023-10-04T22:25:19.660Z,21.90
2023-10-04T22:27:50.442Z,22.10
2023-10-04T22:30:22.696Z,20.73
2023-10-04T22:32:53.106Z,22.40
2023-10-04T22:35:24.213Z,22.83
2023-10-04T22:37:52.833Z,19.92
2023-10-04T22:40:20.785Z,23.45
2023-10-04T22:42:48.708Z,25.25
2023-10-04T22:45:17.110Z,25.73
2023-10-04T22:47:48.279Z,22.15
2023-10-04T22:50:17.872Z,22.20
2023-10-04T22:52:45.112Z,18.63
2023-10-04T22:55:14.130Z,22.35
2023-10-04T22:57:42.936Z,22.52
2023-10-04T23:00:26.868Z,23.65
2023-10-04T23:02:57.737Z,20.45
2023-10-04T23:05:27.194Z,20.55
2023-10-04T23:07:58.381Z,20.15
2023-10-04T23:10:27.119Z,22.95
2023-10-04T23:12:58.592Z,19.95
2023-10-04T23:15:30.196Z,19.63
2023-10-04T23:18:21.883Z,24.50
2023-10-04T23:20:49.354Z,18.73
2023-10-04T23:23:16.932Z,20.58
2023-10-04T23:25:47.634Z,21.45
2023-10-04T23:28:16.563Z,20.50
2023-10-04T23:30:45.468Z,18.40
2023-10-04T23:33:20.980Z,23.13
2023-10-04T23:35:59.593Z,19.60
2023-10-04T23:38:33.904Z,23.33
2023-10-04T23:41:11.499Z,20.98
2023-10-04T23:43:42.543Z,19.17
2023-10-04T23:46:26.846Z,23.08
2023-10-04T23:49:00.196Z,19.30
2023-10-04T23:51:29.129Z,19.40
2023-10-04T23:54:14.911Z,21.63
2023-10-04T23:57:01.934Z,19.50
2023-10-04T23:59:29.259Z,19.75
